createdAt,value
2023-03-06T00:00:40.908Z,12.20
2023-03-06T00:03:20.599Z,9.40
2023-03-06T00:05:51.021Z,10.70
2023-03-06T00:08:21.362Z,10.00
2023-03-06T00:10:51.709Z,10.70
2023-03-06T00:13:22.323Z,9.60
2023-03-06T00:15:52.667Z,8.90
2023-03-06T00:18:23.241Z,10.50
2023-03-06T00:20:58.791Z,11.20
2023-03-06T00:23:29.457Z,11.00
2023-03-06T00:26:01.428Z,10.50
2023-03-06T00:28:32.388Z,9.60
2023-03-06T00:31:03.311Z,10.30
2023-03-06T00:33:33.998Z,12.00
2023-03-06T00:36:07.910Z,10.80
2023-03-06T00:38:38.302Z,9.50
2023-03-06T00:41:13.526Z,11.60
2023-03-06T00:43:43.986Z,11.30
2023-03-06T00:46:15.031Z,11.80
2023-03-06T00:48:46.659Z,10.50
2023-03-06T00:51:19.578Z,12.70
2023-03-06T00:53:50.036Z,12.30
2023-03-06T00:56:20.433Z,14.30
2023-03-06T00:58:51.747Z,14.30
2023-03-06T01:01:22.829Z,12.40
2023-03-06T01:03:53.508Z,11.80
2023-03-06T01:06:24.187Z,12.70
2023-03-06T01:08:54.685Z,10.70
2023-03-06T01:11:25.840Z,12.70
2023-03-06T01:13:56.092Z,11.70
2023-03-06T01:16:26.979Z,12.80
2023-03-06T01:18:57.543Z,9.90
2023-03-06T01:21:29.061Z,9.90
2023-03-06T01:23:59.367Z,11.50
2023-03-06T01:26:32.048Z,12.20
2023-03-06T01:29:02.778Z,10.90
2023-03-06T01:31:33.483Z,12.80
2023-03-06T01:34:04.948Z,13.40
2023-03-06T01:36:35.213Z,17.60
2023-03-06T01:39:06.929Z,19.00
2023-03-06T01:41:38.086Z,19.30
2023-03-06T01:44:09.798Z,24.30
2023-03-06T01:46:42.446Z,21.20
2023-03-06T01:49:18.136Z,22.00
2023-03-06T01:51:51.507Z,18.80
2023-03-06T01:54:24.951Z,15.40
2023-03-06T01:57:00.873Z,14.30
2023-03-06T01:59:31.508Z,16.30
2023-03-06T02:02:03.999Z,12.10
2023-03-06T02:04:35.321Z,12.20
2023-03-06T02:07:07.679Z,14.50
2023-03-06T02:09:39.520Z,11.70
2023-03-06T02:12:12.462Z,16.10
2023-03-06T02:14:43.099Z,12.40
2023-03-06T02:17:15.686Z,14.60
2023-03-06T02:19:53.506Z,13.00
2023-03-06T02:22:27.101Z,13.30
2023-03-06T02:25:03.099Z,13.40
2023-03-06T02:27:34.032Z,19.90
2023-03-06T02:30:10.122Z,16.90
2023-03-06T02:32:40.699Z,17.60
2023-03-06T02:35:18.335Z,16.10
2023-03-06T02:37:49.436Z,15.20
2023-03-06T02:40:20.874Z,16.30
2023-03-06T02:42:55.935Z,18.40
2023-03-06T02:45:31.153Z,16.20
2023-03-06T02:48:01.258Z,18.60
2023-03-06T02:50:31.684Z,19.50
2023-03-06T02:53:02.563Z,19.40
2023-03-06T02:55:33.007Z,18.80
2023-03-06T02:58:04.205Z,21.70
2023-03-06T03:00:34.767Z,16.50
2023-03-06T03:03:06.328Z,16.80
2023-03-06T03:05:36.898Z,19.70
2023-03-06T03:08:07.647Z,18.40
2023-03-06T03:10:38.649Z,19.70
2023-03-06T03:13:10.222Z,17.00
2023-03-06T03:15:41.029Z,17.30
2023-03-06T03:18:12.291Z,19.30
2023-03-06T03:20:44.870Z,14.40
2023-03-06T03:23:16.058Z,17.30
2023-03-06T03:25:47.578Z,15.80
2023-03-06T03:28:18.808Z,15.40
2023-03-06T03:30:49.204Z,16.70
2023-03-06T03:33:19.583Z,14.30
2023-03-06T03:35:58.292Z,15.00
2023-03-06T03:38:29.293Z,14.80
2023-03-06T03:41:01.288Z,17.60
2023-03-06T03:43:32.996Z,22.90
2023-03-06T03:46:04.438Z,20.40
2023-03-06T03:48:35.154Z,16.70
2023-03-06T03:51:08.976Z,17.30
2023-03-06T03:53:40.653Z,20.70
2023-03-06T03:56:12.234Z,23.10
2023-03-06T03:58:43.556Z,19.20
2023-03-06T04:01:13.801Z,18.40
2023-03-06T04:03:44.680Z,25.00
2023-03-06T04:06:16.053Z,14.70
2023-03-06T04:08:46.444Z,17.50
2023-03-06T04:11:18.571Z,16.20
2023-03-06T04:13:49.107Z,15.90
2023-03-06T04:16:20.649Z,15.80
2023-03-06T04:18:50.855Z,14.20
2023-03-06T04:21:21.130Z,18.90
2023-03-06T04:23:51.668Z,15.60
2023-03-06T04:26:22.367Z,16.30
2023-03-06T04:28:52.608Z,16.40
2023-03-06T04:31:23.374Z,14.50
2023-03-06T04:33:53.717Z,14.70
2023-03-06T04:36:27.965Z,13.60
2023-03-06T04:38:58.493Z,15.20
2023-03-06T04:41:29.067Z,15.70
2023-03-06T04:43:59.818Z,15.20
2023-03-06T04:46:30.135Z,14.70
2023-03-06T04:49:00.595Z,15.00
2023-03-06T04:51:30.890Z,15.70
2023-03-06T04:54:01.279Z,15.40
2023-03-06T04:56:31.500Z,17.40
2023-03-06T04:59:03.648Z,16.80
2023-03-06T05:01:34.678Z,18.30
2023-03-06T05:04:05.750Z,15.00
2023-03-06T05:06:37.225Z,17.20
2023-03-06T05:09:08.187Z,15.50
2023-03-06T05:11:38.408Z,16.80
2023-03-06T05:14:08.726Z,14.40
2023-03-06T05:16:39.093Z,15.60
2023-03-06T05:19:09.593Z,21.50
2023-03-06T05:21:39.979Z,14.20
2023-03-06T05:24:11.276Z,15.00
2023-03-06T05:26:41.721Z,14.30
2023-03-06T05:29:12.139Z,14.60
2023-03-06T05:31:42.450Z,11.90
2023-03-06T05:34:14.827Z,15.20
2023-03-06T05:36:45.209Z,12.40
2023-03-06T05:39:15.624Z,13.30
2023-03-06T05:41:50.754Z,12.60
2023-03-06T05:44:23.612Z,12.30
2023-03-06T05:46:55.107Z,12.80
2023-03-06T05:49:25.406Z,12.80
2023-03-06T05:51:56.087Z,12.20
2023-03-06T05:54:26.642Z,12.70
2023-03-06T05:56:57.732Z,12.30
2023-03-06T05:59:28.784Z,12.30
2023-03-06T06:01:59.307Z,10.20
2023-03-06T06:04:29.878Z,16.90
2023-03-06T06:07:01.470Z,17.80
2023-03-06T06:09:31.843Z,11.90
2023-03-06T06:12:06.021Z,12.40
2023-03-06T06:14:36.775Z,10.60
2023-03-06T06:17:08.290Z,15.40
2023-03-06T06:19:38.875Z,10.50
2023-03-06T06:22:09.059Z,9.70
2023-03-06T06:24:39.427Z,10.40
2023-03-06T06:27:09.731Z,9.00
2023-03-06T06:29:40.088Z,10.10
2023-03-06T06:32:10.508Z,12.60
2023-03-06T06:34:41.271Z,12.40
2023-03-06T06:37:11.539Z,14.50
2023-03-06T06:39:41.820Z,19.50
2023-03-06T06:42:30.481Z,17.30
2023-03-06T06:45:03.054Z,18.00
2023-03-06T06:47:33.918Z,18.00
2023-03-06T06:50:04.580Z,19.20
2023-03-06T06:52:35.178Z,18.10
2023-03-06T06:55:06.881Z,23.00
2023-03-06T06:57:37.820Z,24.00
2023-03-06T07:00:12.058Z,22.50
2023-03-06T07:02:42.480Z,27.70
2023-03-06T07:05:13.381Z,23.20
2023-03-06T07:07:44.666Z,25.00
2023-03-06T07:10:18.910Z,29.30
2023-03-06T07:12:50.173Z,23.00
2023-03-06T07:15:20.964Z,19.80
2023-03-06T07:17:51.264Z,22.80
2023-03-06T07:20:22.992Z,18.50
2023-03-06T07:22:53.425Z,24.00
2023-03-06T07:25:23.878Z,20.20
2023-03-06T07:27:55.368Z,18.50
2023-03-06T07:30:25.781Z,22.50
2023-03-06T07:32:57.820Z,20.20
2023-03-06T07:35:28.719Z,18.80
2023-03-06T07:37:59.338Z,21.40
2023-03-06T07:40:30.517Z,20.40
2023-03-06T07:43:13.222Z,20.00
2023-03-06T07:45:49.317Z,22.20
2023-03-06T07:48:19.427Z,21.30
2023-03-06T07:50:57.562Z,16.90
2023-03-06T07:53:28.345Z,16.10
2023-03-06T07:55:58.677Z,16.10
2023-03-06T07:58:29.026Z,17.20
2023-03-06T08:01:03.273Z,19.90
2023-03-06T08:03:33.628Z,14.20
2023-03-06T08:06:12.647Z,8.90
2023-03-06T08:08:45.105Z,15.60
2023-03-06T08:11:17.509Z,8.90
2023-03-06T08:13:49.471Z,13.30
2023-03-06T08:16:21.440Z,7.70
2023-03-06T08:18:52.245Z,10.50
2023-03-06T08:21:23.893Z,16.30
2023-03-06T08:23:54.266Z,12.30
2023-03-06T08:26:26.777Z,11.30
2023-03-06T08:28:58.250Z,8.30
2023-03-06T08:31:30.396Z,20.30
2023-03-06T08:34:02.105Z,14.90
2023-03-06T08:36:32.545Z,10.40
2023-03-06T08:39:04.318Z,6.90
2023-03-06T08:41:35.097Z,8.30
2023-03-06T08:44:06.213Z,8.30
2023-03-06T08:46:37.237Z,8.20
2023-03-06T08:49:08.805Z,7.70
2023-03-06T08:51:39.042Z,13.80
2023-03-06T08:54:10.485Z,14.50
2023-03-06T08:56:41.140Z,12.90
2023-03-06T08:59:13.153Z,8.40
2023-03-06T09:01:44.937Z,12.50
2023-03-06T09:04:15.312Z,9.10
2023-03-06T09:06:46.508Z,9.60
2023-03-06T09:09:16.964Z,8.10
2023-03-06T09:11:47.646Z,7.10
2023-03-06T09:14:18.071Z,11.30
2023-03-06T09:16:48.513Z,9.50
2023-03-06T09:19:18.969Z,7.40
2023-03-06T09:21:49.410Z,6.60
2023-03-06T09:24:20.134Z,13.10
2023-03-06T09:26:51.699Z,8.00
2023-03-06T09:29:22.154Z,10.70
2023-03-06T09:31:52.396Z,7.40
2023-03-06T09:34:23.071Z,13.20
2023-03-06T09:36:57.253Z,14.20
2023-03-06T09:39:28.477Z,12.00
2023-03-06T09:41:59.333Z,11.40
2023-03-06T09:44:31.050Z,13.70
2023-03-06T09:47:24.925Z,20.40
2023-03-06T09:50:11.929Z,11.20
2023-03-06T09:52:50.300Z,10.50
2023-03-06T09:55:22.933Z,13.70
2023-03-06T09:57:56.479Z,13.70
2023-03-06T10:00:33.582Z,13.10
2023-03-06T10:03:15.098Z,17.20
2023-03-06T10:05:47.749Z,15.70
2023-03-06T10:08:24.493Z,19.30
2023-03-06T10:13:31.676Z,7.00
2023-03-06T10:16:08.237Z,8.40
2023-03-06T10:18:38.845Z,9.80
2023-03-06T10:21:23.784Z,6.20
2023-03-06T10:23:55.927Z,12.10
2023-03-06T10:26:28.515Z,5.60
2023-03-06T10:29:16.636Z,4.30
2023-03-06T10:31:51.038Z,3.90
2023-03-06T10:34:23.805Z,3.70
2023-03-06T10:36:54.262Z,3.00
2023-03-06T10:39:24.824Z,1.90
2023-03-06T10:41:57.914Z,2.80
2023-03-06T10:44:28.692Z,3.10
2023-03-06T10:46:59.418Z,3.30
2023-03-06T10:49:35.750Z,5.90
2023-03-06T10:52:20.140Z,3.20
2023-03-06T10:54:50.831Z,1.40
2023-03-06T10:57:26.011Z,1.70
2023-03-06T10:59:58.861Z,3.60
2023-03-06T11:02:36.245Z,4.60
2023-03-06T11:05:11.180Z,8.60
2023-03-06T11:07:56.406Z,3.60
2023-03-06T11:10:28.260Z,2.50
2023-03-06T11:13:04.715Z,3.90
2023-03-06T11:15:41.132Z,4.20
2023-03-06T11:18:30.817Z,2.90
2023-03-06T11:21:01.936Z,3.10
2023-03-06T11:23:38.861Z,6.80
2023-03-06T11:26:32.351Z,15.20
2023-03-06T11:29:25.676Z,5.30
2023-03-06T11:32:00.605Z,4.70
2023-03-06T11:34:41.171Z,5.80
2023-03-06T11:37:17.236Z,2.30
2023-03-06T11:39:50.992Z,1.80
2023-03-06T11:42:24.875Z,1.10
2023-03-06T11:45:04.136Z,1.90
2023-03-06T11:47:37.085Z,1.80
2023-03-06T11:50:17.675Z,4.10
2023-03-06T11:52:52.554Z,1.50
2023-03-06T11:55:39.974Z,1.10
2023-03-06T11:58:41.093Z,1.30
2023-03-06T12:01:16.648Z,1.50
2023-03-06T12:04:19.276Z,2.90
2023-03-06T12:06:57.640Z,2.20
2023-03-06T12:09:38.893Z,6.50
2023-03-06T12:12:22.916Z,2.10
2023-03-06T12:15:04.707Z,4.60
2023-03-06T12:17:47.096Z,0.80
2023-03-06T12:20:33.326Z,6.00
2023-03-06T12:23:15.332Z,2.00
2023-03-06T12:25:51.540Z,3.80
2023-03-06T12:28:34.780Z,3.00
2023-03-06T12:31:26.177Z,4.30
2023-03-06T12:34:05.546Z,1.20
2023-03-06T12:36:42.206Z,2.80
2023-03-06T12:39:18.824Z,1.80
2023-03-06T12:42:06.784Z,5.80
2023-03-06T12:44:58.815Z,5.20
2023-03-06T12:47:30.397Z,6.60
2023-03-06T12:50:08.195Z,1.60
2023-03-06T12:52:39.057Z,2.20
2023-03-06T12:55:17.161Z,2.30
2023-03-06T12:57:48.626Z,4.20
2023-03-06T13:00:58.752Z,2.00
2023-03-06T13:03:44.633Z,3.80
2023-03-06T13:06:27.451Z,5.80
2023-03-06T13:09:18.058Z,3.60
2023-03-06T13:12:03.939Z,4.60
2023-03-06T13:14:54.985Z,5.40
2023-03-06T13:17:34.039Z,4.30
2023-03-06T13:20:26.927Z,3.80
2023-03-06T13:22:58.676Z,7.60
2023-03-06T13:25:49.727Z,2.60
2023-03-06T13:28:45.843Z,7.10
2023-03-06T13:31:27.700Z,4.40
2023-03-06T13:34:02.627Z,4.20
2023-03-06T13:36:33.827Z,2.60
2023-03-06T13:39:09.339Z,4.40
2023-03-06T13:41:57.241Z,3.80
2023-03-06T13:44:50.799Z,3.30
2023-03-06T13:48:06.504Z,2.30
2023-03-06T13:50:39.456Z,3.90
2023-03-06T13:53:37.607Z,2.50
2023-03-06T13:58:58.120Z,4.20
2023-03-06T14:01:43.394Z,4.50
2023-03-06T14:04:38.024Z,2.00
2023-03-06T14:07:23.484Z,3.20
2023-03-06T14:10:02.091Z,1.90
2023-03-06T14:12:35.757Z,2.00
2023-03-06T14:15:13.382Z,5.40
2023-03-06T14:17:53.680Z,3.90
2023-03-06T14:20:28.350Z,2.80
2023-03-06T14:23:16.389Z,5.70
2023-03-06T14:25:47.989Z,2.90
2023-03-06T14:28:26.523Z,2.00
2023-03-06T14:30:59.195Z,4.00
2023-03-06T14:33:35.645Z,2.10
2023-03-06T14:36:09.014Z,1.60
2023-03-06T14:38:46.213Z,2.40
2023-03-06T14:41:24.772Z,1.70
2023-03-06T14:44:10.190Z,4.50
2023-03-06T14:46:41.044Z,1.90
2023-03-06T14:49:13.071Z,1.10
2023-03-06T14:51:45.043Z,2.40
2023-03-06T14:54:21.203Z,4.20
2023-03-06T14:56:55.554Z,1.70
2023-03-06T14:59:28.533Z,2.40
2023-03-06T15:02:01.584Z,1.10
2023-03-06T15:04:36.651Z,2.60
2023-03-06T15:07:10.269Z,2.40
2023-03-06T15:09:42.408Z,1.50
2023-03-06T15:12:35.978Z,1.90
2023-03-06T15:15:27.509Z,6.30
2023-03-06T15:17:57.832Z,1.50
2023-03-06T15:20:43.666Z,2.00
2023-03-06T15:23:23.156Z,1.60
2023-03-06T15:25:59.079Z,1.90
2023-03-06T15:28:38.277Z,2.20
2023-03-06T15:31:21.316Z,2.40
2023-03-06T15:34:23.873Z,6.50
2023-03-06T15:36:55.838Z,3.10
2023-03-06T15:39:31.660Z,10.10
2023-03-06T15:42:05.036Z,4.00
2023-03-06T15:44:36.478Z,2.00
2023-03-06T15:47:09.539Z,1.90
2023-03-06T15:49:40.596Z,3.40
2023-03-06T15:52:12.332Z,2.50
2023-03-06T15:54:45.293Z,3.00
2023-03-06T15:57:21.292Z,3.10
2023-03-06T15:59:52.561Z,1.50
2023-03-06T16:02:24.722Z,2.90
2023-03-06T16:04:57.250Z,3.90
2023-03-06T16:07:28.396Z,1.00
2023-03-06T16:09:59.238Z,2.00
2023-03-06T16:12:31.320Z,2.10
2023-03-06T16:15:06.663Z,0.70
2023-03-06T16:17:37.070Z,0.90
2023-03-06T16:20:10.954Z,0.50
2023-03-06T16:22:41.448Z,1.10
2023-03-06T16:25:12.922Z,0.80
2023-03-06T16:27:55.479Z,0.80
2023-03-06T16:30:27.314Z,5.90
2023-03-06T16:32:58.747Z,0.80
2023-03-06T16:35:31.752Z,5.30
2023-03-06T16:38:02.472Z,0.90
2023-03-06T16:40:40.974Z,3.00
2023-03-06T16:43:13.222Z,2.60
2023-03-06T16:45:45.214Z,1.00
2023-03-06T16:48:19.026Z,0.80
2023-03-06T16:50:50.147Z,0.50
2023-03-06T16:53:21.500Z,1.30
2023-03-06T16:55:53.780Z,1.70
2023-03-06T16:58:28.152Z,1.00
2023-03-06T17:01:03.021Z,2.50
2023-03-06T17:03:34.039Z,2.70
2023-03-06T17:06:05.180Z,0.70
2023-03-06T17:08:36.595Z,4.80
2023-03-06T17:11:09.365Z,2.40
2023-03-06T17:13:40.252Z,1.90
2023-03-06T17:16:18.028Z,3.00
2023-03-06T17:18:52.228Z,5.50
2023-03-06T17:21:26.479Z,3.30
2023-03-06T17:24:01.843Z,4.00
2023-03-06T17:26:33.159Z,0.90
2023-03-06T17:29:05.939Z,0.80
2023-03-06T17:31:39.089Z,2.70
2023-03-06T17:34:12.158Z,2.40
2023-03-06T17:36:43.784Z,0.80
2023-03-06T17:39:14.248Z,6.30
2023-03-06T17:41:46.428Z,1.70
2023-03-06T17:44:17.088Z,0.90
2023-03-06T17:46:47.564Z,2.60
2023-03-06T17:49:20.870Z,2.70
2023-03-06T17:51:51.503Z,1.50
2023-03-06T17:54:22.077Z,4.80
2023-03-06T17:56:52.587Z,0.90
2023-03-06T17:59:23.488Z,1.40
2023-03-06T18:01:57.914Z,1.10
2023-03-06T18:04:28.779Z,2.10
2023-03-06T18:07:01.348Z,1.50
2023-03-06T18:09:32.287Z,3.90
2023-03-06T18:12:04.034Z,2.80
2023-03-06T18:14:37.410Z,1.80
2023-03-06T18:17:10.510Z,0.40
2023-03-06T18:19:41.529Z,1.20
2023-03-06T18:22:12.324Z,0.60
2023-03-06T18:24:42.945Z,0.20
2023-03-06T18:27:13.413Z,0.40
2023-03-06T18:29:44.020Z,2.50
2023-03-06T18:32:14.669Z,0.30
2023-03-06T18:34:44.938Z,0.80
2023-03-06T18:37:16.350Z,0.70
2023-03-06T18:39:56.292Z,0.60
2023-03-06T18:42:26.738Z,1.40
2023-03-06T18:44:58.332Z,0.60
2023-03-06T18:47:31.454Z,1.80
2023-03-06T18:50:08.523Z,1.20
2023-03-06T18:52:41.886Z,0.80
2023-03-06T18:55:13.261Z,2.30
2023-03-06T18:57:43.537Z,0.50
2023-03-06T19:00:15.942Z,1.40
2023-03-06T19:02:47.039Z,4.50
2023-03-06T19:05:18.564Z,0.80
2023-03-06T19:07:49.015Z,3.90
2023-03-06T19:10:20.073Z,0.80
2023-03-06T19:12:50.560Z,0.30
2023-03-06T19:15:21.513Z,0.70
2023-03-06T19:17:51.903Z,0.50
2023-03-06T19:20:22.541Z,0.60
2023-03-06T19:22:53.551Z,6.60
2023-03-06T19:25:24.118Z,0.90
2023-03-06T19:27:55.338Z,0.90
2023-03-06T19:30:26.032Z,0.40
2023-03-06T19:32:56.798Z,0.50
2023-03-06T19:35:28.370Z,1.10
2023-03-06T19:37:59.109Z,0.80
2023-03-06T19:40:31.302Z,0.50
2023-03-06T19:43:02.186Z,0.70
2023-03-06T19:45:32.615Z,0.70
2023-03-06T19:48:05.510Z,1.10
2023-03-06T19:50:36.182Z,0.30
2023-03-06T19:53:07.570Z,0.40
2023-03-06T19:55:37.934Z,0.80
2023-03-06T19:58:08.344Z,0.40
2023-03-06T20:00:38.793Z,0.20
2023-03-06T20:03:09.136Z,0.30
2023-03-06T20:05:48.584Z,0.00
2023-03-06T20:08:19.269Z,0.50
2023-03-06T20:10:49.730Z,0.40
2023-03-06T20:13:20.059Z,0.40
2023-03-06T20:15:50.552Z,0.80
2023-03-06T20:18:20.974Z,0.80
2023-03-06T20:20:59.870Z,0.50
2023-03-06T20:23:32.781Z,3.20
2023-03-06T20:26:09.194Z,0.60
2023-03-06T20:28:42.153Z,1.60
2023-03-06T20:31:14.096Z,0.10
2023-03-06T20:33:44.459Z,0.10
2023-03-06T20:36:16.341Z,0.10
2023-03-06T20:38:47.258Z,0.30
2023-03-06T20:41:19.059Z,0.20
2023-03-06T20:43:49.885Z,0.20
2023-03-06T20:46:22.115Z,0.40
2023-03-06T20:49:06.732Z,0.30
2023-03-06T20:51:49.143Z,0.20
2023-03-06T20:54:23.998Z,0.20
2023-03-06T20:56:55.729Z,0.40
2023-03-06T20:59:37.209Z,0.30
2023-03-06T21:02:07.575Z,0.20
2023-03-06T21:04:48.321Z,0.20
2023-03-06T21:07:19.651Z,0.70
2023-03-06T21:09:51.580Z,0.30
2023-03-06T21:12:22.011Z,0.40
2023-03-06T21:14:53.619Z,0.30
2023-03-06T21:20:18.114Z,0.20
2023-03-06T21:22:52.049Z,4.80
2023-03-06T21:25:22.329Z,0.20
2023-03-06T21:27:52.505Z,0.00
2023-03-06T21:30:22.953Z,1.70
2023-03-06T21:32:53.598Z,0.00
2023-03-06T21:35:24.376Z,0.90
2023-03-06T21:37:54.860Z,0.30
2023-03-06T21:40:25.013Z,1.40
2023-03-06T21:42:55.419Z,0.00
2023-03-06T21:45:29.734Z,0.10
2023-03-06T21:48:01.151Z,0.00
2023-03-06T21:50:31.619Z,0.40
2023-03-06T21:53:01.803Z,0.10
2023-03-06T21:55:32.122Z,2.20
2023-03-06T21:58:02.416Z,0.00
2023-03-06T22:00:35.978Z,0.70
2023-03-06T22:03:07.021Z,0.10
2023-03-06T22:05:37.295Z,0.20
2023-03-06T22:08:07.664Z,0.20
2023-03-06T22:10:39.893Z,0.00
2023-03-06T22:13:10.366Z,0.10
2023-03-06T22:15:40.556Z,0.20
2023-03-06T22:18:15.534Z,3.50
2023-03-06T22:20:45.938Z,0.30
2023-03-06T22:23:16.951Z,0.20
2023-03-06T22:25:47.243Z,1.90
2023-03-06T22:28:18.828Z,0.00
2023-03-06T22:30:49.012Z,0.10
2023-03-06T22:33:19.281Z,0.20
2023-03-06T22:35:49.889Z,0.40
2023-03-06T22:38:20.240Z,0.60
2023-03-06T22:40:50.823Z,0.90
2023-03-06T22:43:21.222Z,0.20
2023-03-06T22:45:52.472Z,0.00
2023-03-06T22:48:23.612Z,0.10
2023-03-06T22:50:54.885Z,0.10
2023-03-06T22:53:25.235Z,0.10
2023-03-06T22:55:57.512Z,0.40
2023-03-06T22:58:33.857Z,0.30
2023-03-06T23:01:11.668Z,0.10
2023-03-06T23:03:43.146Z,0.00
2023-03-06T23:06:16.020Z,0.00
2023-03-06T23:08:48.974Z,0.40
2023-03-06T23:11:19.911Z,0.00
2023-03-06T23:13:51.124Z,0.20
2023-03-06T23:16:21.203Z,0.30
2023-03-06T23:18:52.743Z,0.30
2023-03-06T23:21:24.538Z,0.20
2023-03-06T23:23:56.182Z,0.20
2023-03-06T23:26:30.727Z,0.00
2023-03-06T23:29:01.104Z,0.00
2023-03-06T23:31:32.349Z,0.10
2023-03-06T23:34:03.632Z,0.20
2023-03-06T23:36:33.932Z,0.10
2023-03-06T23:39:04.207Z,0.00
2023-03-06T23:41:34.909Z,0.10
2023-03-06T23:44:06.109Z,1.20
2023-03-06T23:46:36.197Z,0.10
2023-03-06T23:49:07.755Z,2.10
2023-03-06T23:51:39.416Z,0.20
2023-03-06T23:54:11.760Z,0.30
2023-03-06T23:56:42.082Z,0.60
2023-03-06T23:59:13.084Z,0.20
